Time;durP1;ratioP1;P1;durP2;ratioP2;P2;SDS_P1;SDS_P2;PMS_P1;PMS_P2;Temp;Humidity;BMP_temperature;BMP_pressure;BME280_temperature;BME280_humidity;BME280_pressure;Samples;Min_cycle;Max_cycle;Signal;HPM_P1;HPM_P2
2023/08/24 00:00:32;;;;;;;2.15;1.45;;;;;;;19.12;70.04;101901.53;4992804;28;98173;-26
2023/08/24 00:02:57;;;;;;;3.08;1.58;;;;;;;19.08;71.08;101899.00;4990915;28;96530;-27
2023/08/24 00:05:23;;;;;;;3.90;1.48;;;;;;;19.06;70.70;101894.66;4992034;28;96516;-27
2023/08/24 00:07:48;;;;;;;5.10;1.70;;;;;;;19.08;70.92;101885.28;4991834;28;97524;-26
2023/08/24 00:10:13;;;;;;;2.72;1.50;;;;;;;19.06;71.34;101890.03;4992444;28;97285;-26
2023/08/24 00:12:39;;;;;;;2.35;1.52;;;;;;;19.10;71.12;101898.91;4992284;28;96451;-26
2023/08/24 00:15:08;;;;;;;3.50;1.63;;;;;;;19.07;71.64;101880.81;4991821;28;96827;-26
2023/08/24 00:17:34;;;;;;;2.50;1.33;;;;;;;19.08;71.32;101887.16;4990695;28;101398;-27
2023/08/24 00:20:00;;;;;;;2.45;1.52;;;;;;;19.06;71.11;101879.03;4990603;28;100746;-28
2023/08/24 00:22:25;;;;;;;3.10;1.80;;;;;;;19.04;71.47;101883.81;4992131;28;96577;-26
2023/08/24 00:24:50;;;;;;;5.00;1.52;;;;;;;19.06;72.00;101883.66;4992470;28;96758;-26
2023/08/24 00:27:16;;;;;;;2.53;1.52;;;;;;;18.93;72.38;101872.81;4992119;28;98001;-27
2023/08/24 00:29:41;;;;;;;4.13;1.63;;;;;;;18.89;72.34;101877.66;4991609;28;99086;-30
2023/08/24 00:32:08;;;;;;;6.65;2.00;;;;;;;18.87;72.51;101881.53;4991604;28;96533;-26
2023/08/24 00:34:33;;;;;;;2.78;1.45;;;;;;;18.87;72.25;101873.28;4991809;28;96815;-28
2023/08/24 00:36:58;;;;;;;3.70;1.75;;;;;;;18.88;72.60;101880.53;4994253;28;97542;-26
2023/08/24 00:39:24;;;;;;;3.30;1.67;;;;;;;18.85;72.91;101873.44;4995261;28;97832;-27
2023/08/24 00:41:49;;;;;;;5.22;1.63;;;;;;;18.89;73.12;101882.28;4995364;28;96463;-27
2023/08/24 00:44:14;;;;;;;3.38;1.77;;;;;;;18.83;74.03;101875.41;4995500;28;96758;-26
2023/08/24 00:46:41;;;;;;;3.33;2.05;;;;;;;18.79;73.40;101881.28;4995222;28;98166;-27
2023/08/24 00:49:07;;;;;;;4.18;1.60;;;;;;;18.83;73.67;101893.75;4994104;28;100991;-26
2023/08/24 00:51:32;;;;;;;2.33;1.40;;;;;;;18.84;73.00;101882.66;4993807;28;96596;-26
2023/08/24 00:53:58;;;;;;;3.67;1.42;;;;;;;18.87;72.69;101892.50;4995452;28;96918;-27
2023/08/24 00:56:24;;;;;;;5.22;1.85;;;;;;;18.82;72.52;101865.41;4993211;28;101039;-26
2023/08/24 00:58:51;;;;;;;3.97;1.67;;;;;;;18.83;72.66;101872.69;4993593;28;100995;-27
2023/08/24 01:01:20;;;;;;;2.63;1.63;;;;;;;18.83;72.97;101864.44;4993615;28;97046;-26
2023/08/24 01:03:45;;;;;;;2.60;1.63;;;;;;;18.81;73.11;101869.19;4995173;28;96568;-26
2023/08/24 01:06:11;;;;;;;2.33;1.40;;;;;;;18.89;73.09;101872.16;4995274;28;97539;-27
2023/08/24 01:08:36;;;;;;;5.00;1.70;;;;;;;18.87;72.81;101874.16;4995015;28;97873;-26
2023/08/24 01:11:07;;;;;;;2.63;1.63;;;;;;;18.92;72.88;101893.00;4993492;28;96614;-27
2023/08/24 01:14:14;;;;;;;3.53;1.47;;;;;;;18.94;72.97;101891.00;4995156;28;96638;-26
2023/08/24 01:16:43;;;;;;;4.72;1.67;;;;;;;18.88;73.38;101875.91;4963523;28;99805;-26
2023/08/24 01:19:39;;;;;;;3.40;1.80;;;;;;;18.89;73.54;101854.81;4993248;28;100779;-26
2023/08/24 01:22:24;;;;;;;2.63;1.50;;;;;;;18.84;73.51;101863.44;4982414;28;97644;-27
2023/08/24 01:25:20;;;;;;;5.63;2.08;;;;;;;18.87;73.43;101863.16;4993305;28;96893;-26
2023/08/24 01:27:47;;;;;;;2.58;1.45;;;;;;;18.83;73.02;101860.78;4984372;28;101032;-26
2023/08/24 01:30:14;;;;;;;2.35;1.67;;;;;;;18.81;73.51;101874.66;4992946;28;101092;-27
2023/08/24 01:32:40;;;;;;;4.28;2.42;;;;;;;18.77;73.47;101864.06;4993188;28;96522;-28
2023/08/24 01:35:08;;;;;;;3.35;2.05;;;;;;;18.77;74.59;101867.66;4993362;28;96840;-27
2023/08/24 01:37:38;;;;;;;3.85;1.80;;;;;;;18.74;74.44;101869.75;4992736;28;100953;-26
2023/08/24 01:40:11;;;;;;;2.70;1.83;;;;;;;18.74;74.97;101858.78;4993385;28;101221;-26
2023/08/24 01:42:45;;;;;;;3.20;1.90;;;;;;;18.71;74.80;101864.50;4993058;28;96714;-26
2023/08/24 01:45:12;;;;;;;3.50;1.58;;;;;;;18.75;74.67;101883.34;4993094;28;98357;-27
2023/08/24 01:47:41;;;;;;;6.07;2.08;;;;;;;18.80;74.92;101883.00;4993590;28;99443;-26
2023/08/24 01:50:07;;;;;;;5.43;2.15;;;;;;;18.73;75.95;101865.25;4992793;28;100541;-27
2023/08/24 01:52:34;;;;;;;3.78;2.08;;;;;;;18.71;75.20;101864.50;4992932;28;96677;-26
2023/08/24 01:54:59;;;;;;;3.97;2.08;;;;;;;18.73;74.99;101865.25;4992814;28;96915;-27
2023/08/24 01:57:25;;;;;;;3.40;2.08;;;;;;;18.67;75.37;101852.91;4993876;28;99048;-26
2023/08/24 01:59:50;;;;;;;5.70;1.92;;;;;;;18.64;76.44;101844.94;4994116;28;97973;-28
2023/08/24 02:02:16;;;;;;;4.43;2.17;;;;;;;18.58;77.72;101820.69;4994398;28;96644;-27
2023/08/24 02:04:42;;;;;;;3.55;2.22;;;;;;;18.57;77.18;101821.72;4993131;28;96899;-26
2023/08/24 02:07:08;;;;;;;3.60;1.98;;;;;;;18.51;78.93;101828.53;4993718;28;99412;-27
2023/08/24 02:09:33;;;;;;;4.25;2.20;;;;;;;18.51;77.15;101812.09;4993717;28;99543;-27
2023/08/24 02:11:58;;;;;;;6.05;1.98;;;;;;;18.48;78.64;101804.09;4993521;28;96617;-27
2023/08/24 02:14:24;;;;;;;3.83;1.98;;;;;;;18.38;77.88;101781.16;4993557;28;96795;-26
2023/08/24 02:16:49;;;;;;;5.47;2.10;;;;;;;18.38;79.35;101786.63;4993412;28;97496;-27
2023/08/24 02:19:14;;;;;;;3.92;2.22;;;;;;;18.28;80.08;101766.41;4993569;28;99228;-26
2023/08/24 02:21:40;;;;;;;6.68;2.08;;;;;;;18.32;80.73;101773.41;4993909;28;96523;-26
2023/08/24 02:24:06;;;;;;;4.00;2.17;;;;;;;18.31;80.54;101767.03;4993937;28;96464;-26
2023/08/24 02:26:31;;;;;;;3.63;2.25;;;;;;;18.24;79.99;101752.94;4993614;28;97509;-27
2023/08/24 02:28:57;;;;;;;3.17;1.85;;;;;;;18.24;80.14;101758.41;4993899;28;99428;-27
2023/08/24 02:31:23;;;;;;;3.63;1.98;;;;;;;18.31;79.67;101768.91;4992260;28;96583;-26
2023/08/24 02:33:48;;;;;;;5.28;2.20;;;;;;;18.33;80.56;101764.16;4993859;28;96807;-27
2023/08/24 02:36:14;;;;;;;4.78;2.33;;;;;;;18.36;79.86;101762.06;4993146;28;98441;-27
2023/08/24 02:38:39;;;;;;;7.32;2.03;;;;;;;18.35;80.86;101762.16;4993328;28;97730;-27
2023/08/24 02:41:06;;;;;;;4.07;2.03;;;;;;;18.35;79.85;101767.66;4993205;28;96665;-26
2023/08/24 02:43:33;;;;;;;3.92;2.28;;;;;;;18.34;79.02;101752.22;4992103;28;96819;-26
2023/08/24 02:46:06;;;;;;;3.42;1.98;;;;;;;18.28;80.63;101736.22;4991818;28;100743;-27
2023/08/24 02:48:32;;;;;;;7.03;1.95;;;;;;;18.32;79.74;101745.97;4991752;28;101554;-27
2023/08/24 02:50:59;;;;;;;5.13;2.15;;;;;;;18.29;82.71;101743.47;4992015;28;96713;-27
2023/08/24 02:53:25;;;;;;;2.42;1.83;;;;;;;18.25;80.42;101729.97;4993692;28;96558;-26
2023/08/24 02:55:50;;;;;;;3.70;1.80;;;;;;;18.18;81.99;101726.00;4991584;28;100779;-26
2023/08/24 02:58:15;;;;;;;3.33;2.35;;;;;;;18.27;80.62;101724.38;4992615;28;102253;-26
2023/08/24 03:00:41;;;;;;;4.60;2.22;;;;;;;18.30;79.92;101732.38;4992718;28;96447;-27
2023/08/24 03:03:06;;;;;;;3.53;2.20;;;;;;;18.33;79.68;101731.25;4993345;28;96969;-26
2023/08/24 03:05:32;;;;;;;3.33;2.30;;;;;;;18.32;80.35;101724.88;4992975;28;97986;-26
2023/08/24 03:07:58;;;;;;;5.25;2.45;;;;;;;18.26;80.57;101725.41;4993350;28;97298;-26
2023/08/24 03:10:23;;;;;;;3.78;2.05;;;;;;;18.31;81.46;101730.53;4991486;28;96820;-28
2023/08/24 03:12:49;;;;;;;3.13;1.88;;;;;;;18.31;80.91;101720.41;4992734;28;96977;-27
2023/08/24 03:15:14;;;;;;;7.65;2.20;;;;;;;18.28;81.10;101712.41;4992560;28;97358;-26
2023/08/24 03:17:40;;;;;;;3.30;2.10;;;;;;;18.27;81.83;101715.28;4993290;28;97778;-26
2023/08/24 03:20:06;;;;;;;3.17;2.08;;;;;;;18.28;80.96;101714.28;4992834;28;96675;-26
2023/08/24 03:22:31;;;;;;;5.07;2.22;;;;;;;18.33;80.30;101718.44;4993306;28;96637;-27
2023/08/24 03:24:56;;;;;;;4.72;1.83;;;;;;;18.36;81.08;101720.91;4992020;28;97366;-26
2023/08/24 03:27:22;;;;;;;3.67;2.05;;;;;;;18.36;81.38;101715.44;4992662;28;98227;-26
2023/08/24 03:29:47;;;;;;;3.55;2.15;;;;;;;18.37;81.10;101708.94;4992947;28;96514;-28
2023/08/24 03:32:12;;;;;;;3.47;2.15;;;;;;;18.34;81.16;101700.97;4992648;28;96816;-26
2023/08/24 03:34:38;;;;;;;4.63;2.30;;;;;;;18.35;80.97;101694.50;4992747;28;98046;-26
2023/08/24 03:37:03;;;;;;;4.53;2.28;;;;;;;18.35;81.49;101701.81;4992457;28;99083;-26
2023/08/24 03:39:29;;;;;;;6.03;2.47;;;;;;;18.35;80.65;101699.97;4992536;28;96736;-26
2023/08/24 03:41:54;;;;;;;2.90;1.88;;;;;;;18.30;80.71;101693.09;4992847;28;96578;-26
2023/08/24 03:44:19;;;;;;;3.08;2.17;;;;;;;18.29;81.27;101696.84;4992635;28;97901;-27
2023/08/24 03:46:45;;;;;;;4.82;1.95;;;;;;;18.36;81.06;101706.31;4992660;28;97914;-27
2023/08/24 03:49:10;;;;;;;4.28;2.13;;;;;;;18.39;80.41;101706.06;4991906;28;96634;-26
2023/08/24 03:51:36;;;;;;;3.42;2.17;;;;;;;18.37;81.12;101705.31;4992581;28;96776;-27
2023/08/24 03:54:03;;;;;;;5.15;2.72;;;;;;;18.40;80.95;101716.94;4991885;28;99396;-26
2023/08/24 03:56:28;;;;;;;7.45;2.63;;;;;;;18.37;81.32;101713.53;4990947;28;100968;-27
2023/08/24 03:58:53;;;;;;;7.82;2.58;;;;;;;18.35;81.51;101713.69;4992329;28;96640;-26
2023/08/24 04:01:19;;;;;;;4.75;2.15;;;;;;;18.39;81.14;101706.06;4992668;28;96788;-27
2023/08/24 04:03:44;;;;;;;3.53;2.45;;;;;;;18.33;80.73;101698.31;4992088;28;99502;-27
2023/08/24 04:06:09;;;;;;;5.18;2.35;;;;;;;18.35;81.00;101704.56;4992641;28;97786;-27
2023/08/24 04:08:35;;;;;;;4.35;2.58;;;;;;;18.32;81.87;101702.06;4992128;28;96919;-27
2023/08/24 04:11:00;;;;;;;3.47;2.33;;;;;;;18.36;81.04;101712.69;4991143;28;96809;-26
2023/08/24 04:13:26;;;;;;;4.13;2.45;;;;;;;18.36;81.30;101717.31;4991551;28;97900;-26
2023/08/24 04:15:51;;;;;;;4.28;2.72;;;;;;;18.33;81.45;101715.69;4991839;28;97874;-26
2023/08/24 04:18:16;;;;;;;4.45;2.58;;;;;;;18.36;81.07;101725.53;4992277;28;96487;-26
2023/08/24 04:20:42;;;;;;;6.40;2.38;;;;;;;18.34;81.47;101722.03;4992185;28;96798;-26
2023/08/24 04:23:07;;;;;;;3.70;2.17;;;;;;;18.35;81.26;101732.91;4992250;28;97348;-26
2023/08/24 04:25:33;;;;;;;4.82;2.33;;;;;;;18.30;81.72;101721.38;4992048;28;98301;-26
2023/08/24 04:27:58;;;;;;;5.30;2.58;;;;;;;18.32;81.30;101724.88;4991901;28;96574;-27
2023/08/24 04:30:23;;;;;;;3.17;2.15;;;;;;;18.31;81.64;101730.53;4992614;28;96860;-26
2023/08/24 04:32:49;;;;;;;5.05;2.25;;;;;;;18.35;81.38;101734.75;4991944;28;98051;-27
2023/08/24 04:35:14;;;;;;;5.85;2.92;;;;;;;18.28;81.84;101728.00;4991849;28;97758;-27
2023/08/24 04:37:40;;;;;;;4.25;2.80;;;;;;;18.29;81.29;101729.75;4991151;28;96833;-27
2023/08/24 04:40:07;;;;;;;5.50;2.90;;;;;;;18.27;81.26;101724.38;4991916;28;96748;-26
2023/08/24 04:42:33;;;;;;;5.32;2.80;;;;;;;18.30;81.47;101721.38;4990322;28;100680;-26
2023/08/24 04:44:58;;;;;;;3.38;2.30;;;;;;;18.29;82.16;101713.31;4990104;28;101563;-26
2023/08/24 04:47:23;;;;;;;5.70;3.00;;;;;;;18.28;81.82;101700.56;4992305;28;96466;-27
2023/08/24 04:49:49;;;;;;;3.22;2.38;;;;;;;18.27;82.62;101696.09;4991890;28;96931;-26
2023/08/24 04:52:14;;;;;;;5.75;2.90;;;;;;;18.20;82.83;101684.75;4991776;28;97810;-27
2023/08/24 04:54:40;;;;;;;3.88;2.40;;;;;;;18.15;83.35;101668.66;4991998;28;97766;-27
2023/08/24 04:57:05;;;;;;;3.65;2.55;;;;;;;18.15;84.08;101674.13;4991532;28;96512;-26
2023/08/24 04:59:32;;;;;;;5.80;2.63;;;;;;;18.14;83.71;101663.28;4990279;28;96801;-26
2023/08/24 05:01:58;;;;;;;5.68;2.53;;;;;;;18.14;82.63;101666.03;4991010;28;97167;-26
2023/08/24 05:04:24;;;;;;;3.58;2.50;;;;;;;18.09;82.97;101671.91;4989966;28;101193;-26
2023/08/24 05:06:49;;;;;;;5.60;3.10;;;;;;;18.07;82.99;101665.66;4991601;28;96499;-26
2023/08/24 05:09:14;;;;;;;5.07;2.80;;;;;;;18.07;83.72;101665.66;4991383;28;96820;-26
2023/08/24 05:11:40;;;;;;;6.80;2.80;;;;;;;18.12;83.89;101668.03;4991579;28;97963;-27
2023/08/24 05:14:06;;;;;;;3.80;2.45;;;;;;;18.14;83.38;101664.19;4990765;28;99773;-27
2023/08/24 05:16:31;;;;;;;6.45;2.95;;;;;;;18.16;84.91;101655.81;4989533;28;96815;-27
2023/08/24 05:18:57;;;;;;;9.43;3.25;;;;;;;18.16;83.32;101653.97;4991578;28;96981;-26
2023/08/24 05:21:22;;;;;;;4.53;3.03;;;;;;;18.13;83.58;101653.31;4991277;28;97842;-26
2023/08/24 05:23:47;;;;;;;4.38;2.83;;;;;;;18.09;83.43;101641.75;4994469;28;99120;-26
2023/08/24 05:26:13;;;;;;;5.25;2.70;;;;;;;18.12;83.47;101641.50;4993932;28;96747;-27
2023/08/24 05:28:38;;;;;;;6.35;3.22;;;;;;;18.08;84.26;101645.47;4994846;28;96577;-29
2023/08/24 05:31:03;;;;;;;4.15;2.78;;;;;;;18.03;84.00;101632.13;4994640;28;97366;-26
2023/08/24 05:33:30;;;;;;;4.32;2.72;;;;;;;18.04;83.59;101639.38;4994681;28;97231;-27
2023/08/24 05:35:56;;;;;;;6.82;2.70;;;;;;;18.01;84.70;101634.13;4994321;28;96645;-29
2023/08/24 05:38:21;;;;;;;6.78;2.80;;;;;;;18.13;84.47;101642.34;4994139;28;96795;-32
2023/08/24 05:40:48;;;;;;;4.68;2.83;;;;;;;18.17;83.60;101638.38;4992297;28;97449;-27
2023/08/24 05:43:14;;;;;;;5.43;3.00;;;;;;;18.19;83.97;101639.13;4990660;28;100836;-28
2023/08/24 05:45:40;;;;;;;3.70;2.63;;;;;;;18.18;84.07;101640.09;4992157;28;96990;-27
2023/08/24 05:48:06;;;;;;;6.22;2.75;;;;;;;18.19;84.10;101626.28;4990485;28;97030;-32
2023/08/24 05:50:32;;;;;;;4.07;2.83;;;;;;;18.23;84.07;101625.03;4991429;28;97384;-27
2023/08/24 05:52:57;;;;;;;6.75;2.95;;;;;;;18.27;83.92;101633.00;4991430;28;97923;-29
2023/08/24 05:55:22;;;;;;;7.65;2.80;;;;;;;18.28;85.23;101626.50;4993444;28;96662;-27
2023/08/24 05:57:48;;;;;;;7.20;3.10;;;;;;;18.33;84.90;101629.75;4994212;28;96835;-27
2023/08/24 06:00:14;;;;;;;7.45;2.95;;;;;;;18.34;83.77;101617.81;4993860;28;99508;-27
2023/08/24 06:02:39;;;;;;;5.50;2.80;;;;;;;18.37;83.98;101612.06;4994135;28;97922;-26
2023/08/24 06:05:06;;;;;;;6.43;3.45;;;;;;;18.38;86.08;101608.31;4993997;28;96590;-27
2023/08/24 06:07:32;;;;;;;5.20;2.90;;;;;;;18.42;85.31;101601.56;4994301;28;96845;-26
2023/08/24 06:09:57;;;;;;;6.00;3.45;;;;;;;18.50;83.78;101587.22;4994032;28;98047;-27
2023/08/24 06:12:23;;;;;;;5.55;3.28;;;;;;;18.46;84.43;101581.13;4993645;28;99434;-26
2023/08/24 06:14:48;;;;;;;5.82;3.58;;;;;;;18.54;84.77;101592.31;4992945;28;96622;-26
2023/08/24 06:17:14;;;;;;;8.10;3.55;;;;;;;18.65;83.82;101588.69;4994167;28;96559;-27
2023/08/24 06:19:39;;;;;;;6.43;3.67;;;;;;;18.70;84.20;101574.56;4993876;28;97539;-26
2023/08/24 06:22:05;;;;;;;6.47;3.58;;;;;;;18.76;84.06;101574.97;4993328;28;98997;-28
2023/08/24 06:24:30;;;;;;;6.32;3.45;;;;;;;18.77;84.35;101570.34;4993810;28;96766;-26
2023/08/24 06:26:56;;;;;;;7.22;3.20;;;;;;;18.86;84.68;101570.44;4993888;28;96847;-26
2023/08/24 06:29:21;;;;;;;6.00;3.58;;;;;;;18.93;83.34;101564.44;4993530;28;98951;-26
2023/08/24 06:31:46;;;;;;;7.47;3.80;;;;;;;19.00;84.44;101571.13;4994031;28;97297;-27
2023/08/24 06:34:12;;;;;;;6.43;3.47;;;;;;;19.10;83.62;101575.69;4992850;28;96615;-27
2023/08/24 06:36:37;;;;;;;6.95;4.07;;;;;;;19.14;83.85;101562.56;4993708;28;96977;-27
2023/08/24 06:39:04;;;;;;;7.13;4.18;;;;;;;19.23;83.81;101566.38;4992864;28;98013;-26
2023/08/24 06:41:33;;;;;;;10.13;4.10;;;;;;;19.31;83.33;101574.84;4992062;28;100952;-27
2023/08/24 06:43:59;;;;;;;9.32;4.13;;;;;;;19.44;83.43;101586.50;4992233;28;96620;-26
2023/08/24 06:46:24;;;;;;;7.40;4.13;;;;;;;19.49;82.42;101572.34;4993503;28;96874;-27
2023/08/24 06:48:49;;;;;;;9.73;4.00;;;;;;;19.58;83.26;101568.78;4993407;28;97406;-26
2023/08/24 06:51:16;;;;;;;10.82;4.75;;;;;;;19.71;82.73;101569.50;4992762;28;99258;-26
2023/08/24 06:53:42;;;;;;;9.32;5.20;;;;;;;19.84;81.75;101569.25;4993371;28;96618;-26
2023/08/24 06:56:08;;;;;;;8.70;4.25;;;;;;;20.08;80.74;101579.06;4993785;28;96750;-26
2023/08/24 06:58:34;;;;;;;8.32;4.18;;;;;;;20.17;80.83;101563.63;4991753;28;98836;-26
2023/08/24 07:00:59;;;;;;;9.98;4.88;;;;;;;20.36;80.12;101570.03;4993118;28;97999;-26
2023/08/24 07:03:25;;;;;;;8.45;4.47;;;;;;;20.50;79.81;101562.41;4992746;28;96531;-26
2023/08/24 07:05:50;;;;;;;8.07;4.18;;;;;;;20.71;79.09;101563.19;4992866;28;96881;-27
2023/08/24 07:08:16;;;;;;;7.97;4.60;;;;;;;20.87;78.70;101570.88;4992928;28;99432;-26
2023/08/24 07:10:42;;;;;;;10.32;5.40;;;;;;;21.04;77.99;101561.03;4993128;28;97803;-27
2023/08/24 07:13:07;;;;;;;7.68;4.32;;;;;;;21.13;77.52;101565.66;4992887;28;97163;-26
2023/08/24 07:15:34;;;;;;;7.18;4.13;;;;;;;21.16;76.82;101559.84;4992377;28;96645;-26
2023/08/24 07:18:01;;;;;;;8.38;5.28;;;;;;;21.30;76.78;101568.69;4991495;28;101166;-27
2023/08/24 07:20:27;;;;;;;11.15;4.63;;;;;;;21.42;76.25;101559.28;4993135;28;97345;-28
2023/08/24 07:22:53;;;;;;;10.05;4.47;;;;;;;21.56;75.53;101544.16;4991631;28;96747;-26
2023/08/24 07:25:21;;;;;;;8.77;4.30;;;;;;;21.73;75.53;101548.03;4992820;28;96813;-27
2023/08/24 07:27:46;;;;;;;11.32;4.57;;;;;;;21.80;74.71;101546.41;4990858;28;99649;-27
2023/08/24 07:30:12;;;;;;;7.03;4.32;;;;;;;21.85;74.39;101547.69;4992901;28;96461;-26
2023/08/24 07:32:38;;;;;;;10.57;4.90;;;;;;;21.97;74.62;101556.63;4992474;28;96666;-27
2023/08/24 07:35:06;;;;;;;6.88;3.95;;;;;;;22.11;74.33;101560.78;4992672;28;96793;-26
2023/08/24 07:37:31;;;;;;;9.25;4.07;;;;;;;22.27;73.58;101554.66;4993730;28;100894;-27
2023/08/24 07:39:56;;;;;;;7.60;4.13;;;;;;;22.42;73.47;101560.53;4993790;28;100847;-28
2023/08/24 07:42:22;;;;;;;6.47;4.30;;;;;;;22.55;73.25;101552.75;4993382;28;96819;-26
2023/08/24 07:44:48;;;;;;;8.50;4.53;;;;;;;22.44;73.27;101555.72;4991004;28;96723;-27
2023/08/24 07:47:14;;;;;;;10.15;4.78;;;;;;;22.39;73.48;101552.56;4992539;28;97715;-28
2023/08/24 07:49:45;;;;;;;7.78;4.70;;;;;;;22.37;73.55;101540.78;4990826;28;100943;-27
2023/08/24 07:52:14;;;;;;;9.68;4.32;;;;;;;22.34;73.77;101543.88;4991909;28;96592;-26
2023/08/24 07:54:40;;;;;;;8.40;4.25;;;;;;;22.29;74.20;101547.09;4991019;28;96856;-26
2023/08/24 07:57:06;;;;;;;8.63;3.97;;;;;;;22.22;74.28;101551.50;4992482;28;97837;-26
2023/08/24 07:59:31;;;;;;;8.80;4.75;;;;;;;22.23;74.49;101536.66;4990298;28;101119;-29
2023/08/24 08:01:57;;;;;;;10.93;4.97;;;;;;;22.25;74.34;101524.44;4989495;28;97815;-28
2023/08/24 08:04:22;;;;;;;8.60;4.60;;;;;;;22.23;74.45;101520.97;4988353;28;96922;-27
2023/08/24 08:06:47;;;;;;;7.53;4.15;;;;;;;22.15;74.60;101522.75;4989895;28;97890;-27
2023/08/24 08:09:13;;;;;;;9.32;4.70;;;;;;;22.17;74.38;101538.13;4988468;28;98274;-30
2023/08/24 08:11:38;;;;;;;8.25;4.82;;;;;;;22.16;74.86;101532.75;4989617;28;96981;-27
2023/08/24 08:14:04;;;;;;;9.30;4.75;;;;;;;22.19;74.69;101535.19;4989598;28;96967;-27
2023/08/24 08:16:29;;;;;;;8.60;4.65;;;;;;;22.18;74.45;101525.19;4990638;28;97886;-26
2023/08/24 08:18:55;;;;;;;8.25;4.40;;;;;;;22.16;74.71;101533.59;4991962;28;97944;-27
2023/08/24 08:21:20;;;;;;;12.18;5.43;;;;;;;22.11;74.71;101524.91;4992343;28;96518;-26
2023/08/24 08:23:46;;;;;;;9.48;5.20;;;;;;;22.17;74.93;101528.97;4992083;28;96810;-26
2023/08/24 08:26:13;;;;;;;9.90;4.47;;;;;;;22.11;75.04;101518.53;4991871;28;97434;-27
2023/08/24 08:28:39;;;;;;;8.27;4.68;;;;;;;22.15;74.57;101511.69;4991849;28;97828;-27
2023/08/24 08:31:04;;;;;;;9.55;4.43;;;;;;;22.13;74.93;101494.41;4990394;28;96719;-26
2023/08/24 08:33:30;;;;;;;10.00;5.68;;;;;;;22.07;74.62;101479.34;4992541;28;96772;-26
2023/08/24 08:35:56;;;;;;;7.78;4.82;;;;;;;22.13;75.11;101483.38;4991778;28;97469;-27
2023/08/24 08:38:25;;;;;;;9.68;5.30;;;;;;;22.16;74.80;101474.78;4991451;28;98827;-26
2023/08/24 08:40:53;;;;;;;8.80;4.85;;;;;;;22.22;74.47;101463.19;4989871;28;97110;-26
2023/08/24 08:43:23;;;;;;;8.43;4.78;;;;;;;22.26;74.73;101468.22;4990308;28;96927;-26
2023/08/24 08:45:51;;;;;;;7.63;4.80;;;;;;;22.26;74.81;101448.00;4989961;28;102785;-27
2023/08/24 08:48:16;;;;;;;7.70;4.75;;;;;;;22.30;74.90;101446.69;4990196;28;101173;-27
2023/08/24 08:50:42;;;;;;;9.65;4.97;;;;;;;22.39;74.39;101455.94;4991986;28;96643;-27
2023/08/24 08:53:07;;;;;;;14.65;5.47;;;;;;;22.42;74.89;101448.19;4991670;28;96863;-26
2023/08/24 08:55:32;;;;;;;8.80;4.70;;;;;;;22.54;74.88;101459.00;4991738;28;98368;-26
2023/08/24 08:58:00;;;;;;;8.15;4.93;;;;;;;22.58;74.11;101455.78;4994240;28;97725;-26
2023/08/24 09:00:27;;;;;;;9.80;4.57;;;;;;;22.62;74.66;101450.78;4993693;28;96649;-26
2023/08/24 09:02:55;;;;;;;10.30;4.68;;;;;;;22.65;73.97;101456.00;4993626;28;96922;-27
2023/08/24 09:05:20;;;;;;;9.25;4.20;;;;;;;22.64;74.69;101451.50;4993095;28;99128;-27
2023/08/24 09:07:47;;;;;;;8.32;4.47;;;;;;;22.64;73.98;101448.75;4993520;28;100881;-26
2023/08/24 09:10:13;;;;;;;9.13;4.72;;;;;;;22.74;73.99;101449.53;4993725;28;96487;-27
2023/08/24 09:12:39;;;;;;;7.40;4.45;;;;;;;22.80;74.03;101446.13;4993549;28;96907;-27
2023/08/24 09:15:06;;;;;;;11.05;5.35;;;;;;;22.77;73.95;101429.00;4994047;28;97943;-26
2023/08/24 09:17:35;;;;;;;10.52;4.65;;;;;;;22.85;74.08;101431.81;4994635;28;99296;-26
2023/08/24 09:20:09;;;;;;;8.80;4.68;;;;;;;22.83;74.07;101456.84;4993472;28;96652;-26
2023/08/24 09:22:41;;;;;;;6.45;4.03;;;;;;;22.83;73.99;101448.56;4995581;28;96618;-28
2023/08/24 09:25:09;;;;;;;10.43;5.03;;;;;;;22.79;74.16;101449.94;4994487;28;98866;-31
2023/08/24 09:27:34;;;;;;;9.45;4.57;;;;;;;22.81;74.42;101463.56;4993181;28;101056;-26
2023/08/24 09:29:59;;;;;;;10.48;5.10;;;;;;;22.71;74.34;101454.50;4994419;28;96620;-26
2023/08/24 09:32:28;;;;;;;8.73;5.10;;;;;;;22.75;74.74;101458.69;4994668;28;96795;-26
2023/08/24 09:34:54;;;;;;;11.73;4.75;;;;;;;22.68;74.59;101452.94;4993096;28;101071;-27
2023/08/24 09:37:20;;;;;;;7.68;4.63;;;;;;;22.69;74.69;101462.94;4993111;28;100935;-26
2023/08/24 09:39:45;;;;;;;10.20;4.53;;;;;;;22.57;74.60;101455.91;4994251;28;96557;-26
2023/08/24 09:42:12;;;;;;;11.25;5.20;;;;;;;22.59;75.37;101471.31;4993063;28;96873;-26
2023/08/24 09:44:37;;;;;;;9.35;4.88;;;;;;;22.55;75.36;101471.78;4994221;28;99668;-27
2023/08/24 09:47:10;;;;;;;12.82;4.22;;;;;;;22.54;75.49;101486.63;4993139;28;99496;-26
2023/08/24 09:49:35;;;;;;;8.98;4.35;;;;;;;22.52;75.78;101495.06;4993031;28;96544;-27
2023/08/24 09:52:02;;;;;;;8.77;4.80;;;;;;;22.43;76.26;101496.88;4994726;28;96828;-27
2023/08/24 09:54:30;;;;;;;6.55;4.47;;;;;;;22.45;76.09;101505.88;4992141;28;102237;-27
2023/08/24 09:56:58;;;;;;;8.13;4.97;;;;;;;22.40;76.36;101522.00;4994388;28;96533;-28
2023/08/24 09:59:27;;;;;;;10.45;5.15;;;;;;;22.32;76.71;101527.47;4992719;28;96727;-27
2023/08/24 10:01:56;;;;;;;10.48;4.88;;;;;;;22.30;76.95;101532.25;4992753;28;96909;-26
2023/08/24 10:04:23;;;;;;;11.43;4.75;;;;;;;22.26;77.92;101540.00;4992538;28;100975;-27
2023/08/24 10:06:55;;;;;;;8.73;4.45;;;;;;;22.17;78.23;101531.75;4992417;28;100857;-26
2023/08/24 10:09:35;;;;;;;7.22;4.07;;;;;;;22.20;78.03;101525.91;4991494;28;96595;-26
2023/08/24 10:12:04;;;;;;;10.25;4.45;;;;;;;22.16;77.85;101516.19;4992962;28;96777;-27
2023/08/24 10:14:41;;;;;;;8.90;4.97;;;;;;;22.12;78.50;101506.47;4991925;28;102271;-27
2023/08/24 10:17:10;;;;;;;10.68;4.93;;;;;;;22.14;77.79;101487.88;4992436;28;101019;-26
2023/08/24 10:19:36;;;;;;;8.05;4.95;;;;;;;22.15;78.16;101478.59;4991690;28;96670;-30
2023/08/24 10:22:02;;;;;;;10.05;4.95;;;;;;;22.22;78.40;101480.59;4990621;28;97154;-27
2023/08/24 10:24:28;;;;;;;9.95;4.97;;;;;;;22.22;78.76;101458.53;4991480;28;99190;-30
2023/08/24 10:26:54;;;;;;;7.95;4.75;;;;;;;22.28;78.67;101454.25;4990358;28;99871;-27
2023/08/24 10:29:21;;;;;;;10.98;5.15;;;;;;;22.36;78.90;101459.03;4990522;28;97038;-27
2023/08/24 10:31:49;;;;;;;12.23;6.03;;;;;;;22.36;79.42;101456.25;4990402;28;97119;-27
2023/08/24 10:34:14;;;;;;;12.25;5.63;;;;;;;22.44;79.06;101456.31;4991208;28;99509;-27
2023/08/24 10:36:40;;;;;;;10.02;6.22;;;;;;;22.50;78.94;101446.53;4991098;28;101309;-27
2023/08/24 10:39:06;;;;;;;9.07;5.22;;;;;;;22.58;79.81;101441.09;4989422;28;97076;-27
2023/08/24 10:41:47;;;;;;;10.27;5.80;;;;;;;22.65;79.49;101436.69;4991140;28;96929;-26
2023/08/24 10:44:22;;;;;;;9.63;5.57;;;;;;;22.70;79.52;101428.78;4990872;28;98042;-28
2023/08/24 10:47:26;;;;;;;8.98;5.20;;;;;;;22.74;79.62;101413.63;4989668;28;100731;-28
2023/08/24 10:49:55;;;;;;;8.98;5.38;;;;;;;22.79;79.73;101419.53;4968695;28;96829;-32
2023/08/24 10:52:34;;;;;;;10.95;5.50;;;;;;;22.81;79.89;101419.34;4970324;28;96912;-26
2023/08/24 10:55:04;;;;;;;10.52;5.35;;;;;;;22.88;79.51;101424.09;4983349;28;97988;-27
2023/08/24 10:57:37;;;;;;;10.23;5.63;;;;;;;22.84;79.95;101413.53;4991596;28;100502;-27
2023/08/24 11:00:06;;;;;;;9.93;5.35;;;;;;;22.87;79.29;101414.06;4991972;28;96793;-26
2023/08/24 11:02:48;;;;;;;10.70;5.57;;;;;;;22.86;79.67;101411.47;4992191;28;96959;-27
2023/08/24 11:05:21;;;;;;;7.90;4.82;;;;;;;22.89;78.97;101423.06;4991333;28;101242;-26
2023/08/24 11:07:53;;;;;;;10.77;5.00;;;;;;;22.92;79.19;101426.53;4991707;28;99226;-27
2023/08/24 11:10:19;;;;;;;;;;;;;;;22.93;79.71;101422.72;4992966;28;96606;-27
2023/08/24 11:13:03;;;;;;;7.65;4.40;;;;;;;22.96;78.76;101425.19;4993216;28;96792;-26
2023/08/24 11:15:40;;;;;;;9.57;4.70;;;;;;;23.04;78.92;101415.06;4992503;28;97415;-27
2023/08/24 11:18:16;;;;;;;7.78;4.78;;;;;;;23.18;78.28;101394.28;4993127;28;97817;-26
2023/08/24 11:20:45;;;;;;;9.30;4.65;;;;;;;23.30;76.76;101392.94;4992464;28;96614;-26
2023/08/24 11:23:12;;;;;;;9.77;4.88;;;;;;;23.42;77.05;101398.22;4991958;28;96863;-26